Time;durP1;ratioP1;P1;durP2;ratioP2;P2;SDS_P1;SDS_P2;PMS_P1;PMS_P2;Temp;Humidity;BMP_temperature;BMP_pressure;BME280_temperature;BME280_humidity;BME280_pressure;Samples;Min_cycle;Max_cycle;Signal;HPM_P1;HPM_P2
2024/02/04 00:02:14;;;;;;;11.30;2.43;;;8.50;99.90;;;;;;4968330;28;20230;-70
2024/02/04 00:04:41;;;;;;;6.23;1.87;;;8.50;99.90;;;;;;4969121;28;20242;-70
2024/02/04 00:07:07;;;;;;;5.67;2.07;;;8.50;99.90;;;;;;4962393;28;20212;-70
2024/02/04 00:09:34;;;;;;;5.83;1.80;;;8.50;99.90;;;;;;4949959;28;20294;-83
2024/02/04 00:12:03;;;;;;;7.63;2.03;;;8.40;99.90;;;;;;4952135;28;20271;-72
2024/02/04 00:14:31;;;;;;;4.10;2.10;;;8.50;99.90;;;;;;4950069;29;20218;-72
2024/02/04 00:16:57;;;;;;;7.60;2.10;;;8.50;99.90;;;;;;4950146;29;20242;-73
2024/02/04 00:19:26;;;;;;;6.37;1.70;;;8.40;99.90;;;;;;4949751;28;20705;-73
2024/02/04 00:21:53;;;;;;;8.10;2.47;;;8.40;99.90;;;;;;4960252;28;20337;-73
2024/02/04 00:24:20;;;;;;;6.33;2.20;;;8.30;99.90;;;;;;4962652;28;20658;-73
2024/02/04 00:26:47;;;;;;;8.07;2.53;;;8.30;99.90;;;;;;4963760;28;20207;-73
2024/02/04 00:29:14;;;;;;;5.43;1.80;;;8.30;99.90;;;;;;4962536;28;20244;-73
2024/02/04 00:31:41;;;;;;;6.10;2.30;;;8.30;99.90;;;;;;4959764;28;20677;-73
2024/02/04 00:34:08;;;;;;;5.90;2.30;;;8.20;99.90;;;;;;4959076;28;20294;-73
2024/02/04 00:36:36;;;;;;;5.77;2.10;;;8.20;99.90;;;;;;4959645;28;20231;-73
2024/02/04 00:39:03;;;;;;;5.53;1.70;;;8.20;99.90;;;;;;4959914;28;20674;-72
2024/02/04 00:41:30;;;;;;;8.10;2.50;;;8.10;99.90;;;;;;4969234;28;20211;-72
2024/02/04 00:43:57;;;;;;;7.63;2.40;;;8.10;99.90;;;;;;4950192;28;20769;-72
2024/02/04 00:46:24;;;;;;;8.87;2.43;;;8.00;99.90;;;;;;4950084;28;20640;-72
2024/02/04 00:48:51;;;;;;;8.83;2.20;;;8.00;99.90;;;;;;4962668;28;20306;-75
2024/02/04 00:51:19;;;;;;;8.90;2.50;;;7.90;99.90;;;;;;4968982;28;20326;-74
2024/02/04 00:53:47;;;;;;;7.80;2.03;;;7.90;99.90;;;;;;4967862;28;20230;-74
2024/02/04 00:56:14;;;;;;;6.93;2.20;;;7.90;99.90;;;;;;4949753;28;20207;-74
2024/02/04 00:58:41;;;;;;;5.97;2.00;;;7.90;99.90;;;;;;4984467;28;20345;-74
2024/02/04 01:01:08;;;;;;;7.27;1.93;;;7.90;99.90;;;;;;4969968;28;20242;-74
2024/02/04 01:03:35;;;;;;;10.33;2.07;;;7.70;99.90;;;;;;4967340;28;20269;-73
2024/02/04 01:06:02;;;;;;;8.53;2.00;;;7.80;99.90;;;;;;4966145;28;20322;-75
2024/02/04 01:08:29;;;;;;;9.13;2.17;;;7.70;99.90;;;;;;4948196;28;20294;-75
2024/02/04 01:10:57;;;;;;;6.77;2.40;;;7.70;99.90;;;;;;4948164;28;20880;-75
2024/02/04 01:13:24;;;;;;;7.97;1.80;;;7.60;99.90;;;;;;4948418;28;20215;-75
2024/02/04 01:15:51;;;;;;;11.17;2.60;;;7.60;99.90;;;;;;4948193;28;20307;-74
2024/02/04 01:18:17;;;;;;;9.50;2.10;;;7.60;99.90;;;;;;4951001;28;20973;-74
2024/02/04 01:20:44;;;;;;;7.00;2.10;;;7.50;99.90;;;;;;4968130;28;20923;-74
2024/02/04 01:23:12;;;;;;;11.30;2.40;;;7.50;99.90;;;;;;4967799;28;20230;-75
2024/02/04 01:25:39;;;;;;;11.53;2.40;;;7.50;99.90;;;;;;4948730;28;20243;-74
2024/02/04 01:28:08;;;;;;;9.07;2.50;;;7.50;99.90;;;;;;4953063;28;20212;-75
2024/02/04 01:30:35;;;;;;;8.10;1.90;;;7.40;99.90;;;;;;4949224;28;20247;-75
2024/02/04 01:33:02;;;;;;;10.67;2.07;;;7.40;99.90;;;;;;4948369;28;20204;-74
2024/02/04 01:35:28;;;;;;;8.17;2.20;;;7.40;99.90;;;;;;4949056;29;20302;-75
2024/02/04 01:37:55;;;;;;;7.23;1.93;;;7.40;99.90;;;;;;4948692;28;20203;-75
2024/02/04 01:40:22;;;;;;;9.73;2.20;;;7.40;99.90;;;;;;4949065;28;20299;-75
2024/02/04 01:42:49;;;;;;;7.90;1.90;;;7.40;99.90;;;;;;4955964;28;20306;-73
2024/02/04 01:45:17;;;;;;;9.90;2.33;;;7.40;99.90;;;;;;4968183;28;20277;-75
2024/02/04 01:47:44;;;;;;;5.43;1.80;;;7.40;99.90;;;;;;4968336;28;20301;-76
2024/02/04 01:50:11;;;;;;;8.47;2.37;;;7.30;99.90;;;;;;4968086;28;20265;-73
2024/02/04 01:52:40;;;;;;;7.27;2.40;;;7.30;99.90;;;;;;4965851;28;20720;-73
2024/02/04 01:55:08;;;;;;;5.80;2.17;;;7.20;99.90;;;;;;4967439;28;20309;-74
2024/02/04 01:57:35;;;;;;;5.67;1.70;;;7.20;99.90;;;;;;4965031;28;20270;-73
2024/02/04 02:00:04;;;;;;;8.60;2.17;;;7.20;99.90;;;;;;4967543;28;20541;-72
2024/02/04 02:02:33;;;;;;;8.43;2.00;;;7.20;99.90;;;;;;4967924;28;20207;-73
2024/02/04 02:05:00;;;;;;;7.97;2.00;;;7.10;99.90;;;;;;4967283;28;20230;-72
2024/02/04 02:07:28;;;;;;;8.80;2.10;;;7.10;99.90;;;;;;4967363;28;20301;-73
2024/02/04 02:09:55;;;;;;;4.87;1.83;;;7.10;99.90;;;;;;4967850;28;20213;-73
2024/02/04 02:12:26;;;;;;;4.80;1.80;;;7.10;99.90;;;;;;4967498;28;20217;-73
2024/02/04 02:15:00;;;;;;;5.60;2.10;;;7.10;99.90;;;;;;4967988;28;20258;-73
2024/02/04 02:17:39;;;;;;;9.37;2.37;;;7.10;99.90;;;;;;4956337;28;20224;-73
2024/02/04 02:20:11;;;;;;;6.43;2.17;;;7.10;99.90;;;;;;4968201;28;20227;-73
2024/02/04 02:22:46;;;;;;;6.70;2.20;;;7.00;99.90;;;;;;4966421;28;20266;-73
2024/02/04 02:25:15;;;;;;;7.17;2.00;;;7.00;99.90;;;;;;4948296;29;20223;-73
2024/02/04 02:27:49;;;;;;;4.97;2.03;;;6.90;99.90;;;;;;4960650;28;20662;-73
2024/02/04 02:30:16;;;;;;;5.10;1.67;;;7.00;99.90;;;;;;4948067;28;20247;-73
2024/02/04 02:32:44;;;;;;;8.13;2.77;;;6.90;99.90;;;;;;4948595;29;20219;-73
2024/02/04 02:35:12;;;;;;;7.80;2.13;;;7.00;99.90;;;;;;4948600;29;20274;-73
2024/02/04 02:37:45;;;;;;;7.20;2.10;;;6.90;99.90;;;;;;4948139;28;20212;-73
2024/02/04 02:40:20;;;;;;;8.87;2.17;;;6.90;99.90;;;;;;4949059;28;20196;-73
2024/02/04 02:42:48;;;;;;;5.83;2.40;;;6.90;99.90;;;;;;4948317;28;20290;-73
2024/02/04 02:45:17;;;;;;;9.80;2.30;;;6.90;99.90;;;;;;4951133;28;20329;-73
2024/02/04 02:47:45;;;;;;;4.20;1.70;;;6.90;99.90;;;;;;4951540;28;20226;-73
2024/02/04 02:50:13;;;;;;;11.00;2.47;;;6.90;99.90;;;;;;4960769;28;20235;-73
2024/02/04 02:52:39;;;;;;;8.33;1.87;;;6.80;99.90;;;;;;4970793;28;20246;-73
2024/02/04 02:55:07;;;;;;;8.80;2.30;;;6.90;99.90;;;;;;4970408;28;21013;-73
2024/02/04 02:57:35;;;;;;;5.20;2.07;;;6.90;99.90;;;;;;4970721;28;20207;-73
2024/02/04 03:00:03;;;;;;;6.13;2.00;;;7.00;99.90;;;;;;4970812;28;20681;-73
2024/02/04 03:02:30;;;;;;;6.27;2.10;;;7.00;99.90;;;;;;4970549;28;20213;-73
2024/02/04 03:04:57;;;;;;;6.83;2.10;;;7.00;99.90;;;;;;4970399;28;20305;-73
2024/02/04 03:07:24;;;;;;;4.53;2.23;;;7.00;99.90;;;;;;4970468;28;20309;-73
2024/02/04 03:09:50;;;;;;;4.30;2.23;;;7.00;99.90;;;;;;4970951;28;20242;-73
2024/02/04 03:12:17;;;;;;;5.53;2.53;;;7.10;99.90;;;;;;4970344;28;20306;-73
2024/02/04 03:14:46;;;;;;;5.90;2.33;;;7.10;99.90;;;;;;4965488;28;20204;-73
2024/02/04 03:17:13;;;;;;;6.03;2.70;;;7.10;99.90;;;;;;4963111;28;20266;-74
2024/02/04 03:19:40;;;;;;;5.20;2.40;;;7.20;99.90;;;;;;4970431;28;20575;-74
2024/02/04 03:22:07;;;;;;;4.57;2.17;;;7.20;99.90;;;;;;4969845;28;20784;-74
2024/02/04 03:24:34;;;;;;;4.00;2.27;;;7.10;99.90;;;;;;4970154;28;20217;-74
2024/02/04 03:27:00;;;;;;;7.20;2.60;;;7.20;99.90;;;;;;4969897;28;20317;-74
2024/02/04 03:29:27;;;;;;;4.83;2.63;;;7.20;99.90;;;;;;4970140;28;20242;-74
2024/02/04 03:31:57;;;;;;;6.33;2.37;;;7.20;99.90;;;;;;4970265;28;20309;-74
2024/02/04 03:34:23;;;;;;;7.23;2.50;;;7.20;99.90;;;;;;4970331;28;20207;-74
2024/02/04 03:36:50;;;;;;;6.27;2.13;;;7.20;99.90;;;;;;4969969;28;20217;-74
2024/02/04 03:39:17;;;;;;;4.57;2.50;;;7.20;99.90;;;;;;4961466;28;20204;-75
2024/02/04 03:41:44;;;;;;;7.77;2.60;;;7.20;99.90;;;;;;4951284;28;20290;-74
2024/02/04 03:44:11;;;;;;;5.03;2.23;;;7.30;99.90;;;;;;4951252;28;20290;-74
2024/02/04 03:46:39;;;;;;;5.93;2.80;;;7.30;99.90;;;;;;4961470;28;20317;-74
2024/02/04 03:49:08;;;;;;;6.37;2.57;;;7.30;99.90;;;;;;4969976;28;20215;-74
2024/02/04 03:51:35;;;;;;;4.83;2.43;;;7.20;99.90;;;;;;4969551;28;20302;-73
2024/02/04 03:54:02;;;;;;;7.57;2.40;;;7.20;99.90;;;;;;4957692;28;20694;-73
2024/02/04 03:56:29;;;;;;;6.93;2.40;;;7.20;99.90;;;;;;4962320;28;20235;-73
2024/02/04 03:58:55;;;;;;;4.77;2.33;;;7.20;99.90;;;;;;4959146;28;20295;-74
2024/02/04 04:01:25;;;;;;;7.57;2.73;;;7.10;99.90;;;;;;4959258;28;20284;-75
2024/02/04 04:03:52;;;;;;;6.00;2.33;;;7.10;99.90;;;;;;4960909;28;20254;-75
2024/02/04 04:06:20;;;;;;;6.60;2.57;;;7.10;99.90;;;;;;4959820;28;20306;-75
2024/02/04 04:08:47;;;;;;;8.60;2.80;;;7.10;99.90;;;;;;4960484;28;20214;-74
2024/02/04 04:11:13;;;;;;;4.53;2.17;;;7.10;99.90;;;;;;4963245;28;20300;-74
2024/02/04 04:13:40;;;;;;;5.70;2.10;;;7.00;99.90;;;;;;4960974;28;20282;-74
2024/02/04 04:16:07;;;;;;;7.93;2.37;;;7.00;99.90;;;;;;4959397;28;20282;-74
2024/02/04 04:18:34;;;;;;;4.23;2.53;;;7.00;99.90;;;;;;4960869;28;20317;-74
2024/02/04 04:21:02;;;;;;;4.73;2.17;;;7.00;99.90;;;;;;4958323;28;20552;-74
2024/02/04 04:23:30;;;;;;;5.30;2.50;;;6.90;99.90;;;;;;4961113;28;20286;-74
2024/02/04 04:25:57;;;;;;;6.10;2.30;;;6.90;99.90;;;;;;4950069;29;20617;-74
2024/02/04 04:28:24;;;;;;;3.47;1.90;;;6.90;99.90;;;;;;4967804;28;20290;-74
2024/02/04 04:30:50;;;;;;;6.27;2.00;;;6.90;99.90;;;;;;4969847;28;20294;-74
2024/02/04 04:33:17;;;;;;;3.63;1.87;;;6.80;99.90;;;;;;4969374;28;20294;-74
2024/02/04 04:35:44;;;;;;;6.70;2.20;;;6.80;99.90;;;;;;4969444;28;20242;-74
2024/02/04 04:38:11;;;;;;;3.80;1.83;;;6.70;99.90;;;;;;4968877;28;20250;-74
2024/02/04 04:40:40;;;;;;;4.27;1.60;;;6.70;99.90;;;;;;4969146;28;20213;-74
2024/02/04 04:43:07;;;;;;;7.23;2.10;;;6.70;99.90;;;;;;4969190;28;20218;-74
2024/02/04 04:45:34;;;;;;;3.23;1.50;;;6.70;99.90;;;;;;4968945;28;20229;-74
2024/02/04 04:48:01;;;;;;;2.87;1.90;;;6.70;99.90;;;;;;4969260;28;20213;-75
2024/02/04 04:50:28;;;;;;;4.67;1.90;;;6.70;99.90;;;;;;4963906;28;20199;-74
2024/02/04 04:52:55;;;;;;;4.00;1.90;;;6.70;99.90;;;;;;4963707;28;20266;-74
2024/02/04 04:55:22;;;;;;;6.60;1.50;;;6.70;99.90;;;;;;4949658;29;20302;-74
2024/02/04 04:57:50;;;;;;;6.30;1.73;;;6.70;99.90;;;;;;4949669;28;20211;-73
2024/02/04 05:00:18;;;;;;;8.67;2.27;;;6.70;99.90;;;;;;4950003;29;20282;-73
2024/02/04 05:02:45;;;;;;;9.63;2.33;;;6.70;99.90;;;;;;4950191;28;20238;-76
2024/02/04 05:05:12;;;;;;;7.80;2.07;;;6.70;99.90;;;;;;4950134;28;20263;-76
2024/02/04 05:07:39;;;;;;;4.90;1.60;;;6.70;99.90;;;;;;4960936;28;20244;-76
2024/02/04 05:10:07;;;;;;;7.60;1.93;;;6.70;99.90;;;;;;4969278;28;20294;-76
2024/02/04 05:12:36;;;;;;;5.77;1.80;;;6.70;99.90;;;;;;4969586;28;20207;-76
2024/02/04 05:15:05;;;;;;;5.00;2.37;;;6.70;99.90;;;;;;4968271;28;20285;-74
2024/02/04 05:17:33;;;;;;;3.20;1.70;;;6.70;99.90;;;;;;4968707;28;20231;-74
2024/02/04 05:20:00;;;;;;;6.23;1.90;;;6.60;99.90;;;;;;4968619;28;20221;-74
2024/02/04 05:22:27;;;;;;;4.03;1.70;;;6.70;99.90;;;;;;4968346;28;20270;-74
2024/02/04 05:24:53;;;;;;;3.67;2.27;;;6.70;99.90;;;;;;4968672;28;20297;-73
2024/02/04 05:27:20;;;;;;;5.23;1.73;;;6.60;99.90;;;;;;4967849;28;20318;-73
2024/02/04 05:29:47;;;;;;;3.77;1.90;;;6.60;99.90;;;;;;4968109;28;20211;-74
2024/02/04 05:32:15;;;;;;;4.77;2.13;;;6.60;99.90;;;;;;4968512;28;20305;-74
2024/02/04 05:34:42;;;;;;;9.27;2.03;;;6.60;99.90;;;;;;4968187;28;20286;-74
2024/02/04 05:37:09;;;;;;;3.03;1.73;;;6.60;99.90;;;;;;4968606;28;20217;-74
2024/02/04 05:39:36;;;;;;;5.37;1.80;;;6.60;99.90;;;;;;4962899;28;20291;-74
2024/02/04 05:42:03;;;;;;;4.80;1.80;;;6.60;99.90;;;;;;4968097;28;20246;-74
2024/02/04 05:44:30;;;;;;;4.23;1.83;;;6.60;99.90;;;;;;4968293;28;20295;-73
2024/02/04 05:46:57;;;;;;;6.30;2.00;;;6.60;99.90;;;;;;4967959;28;20266;-73
2024/02/04 05:49:25;;;;;;;3.83;2.20;;;6.60;99.90;;;;;;4968460;28;20262;-73
2024/02/04 05:51:52;;;;;;;4.97;2.27;;;6.60;99.90;;;;;;4967693;28;20301;-74
2024/02/04 05:54:19;;;;;;;4.97;2.10;;;6.60;99.90;;;;;;4953405;28;20769;-75
2024/02/04 05:56:46;;;;;;;4.37;2.23;;;6.70;99.90;;;;;;4948397;29;20299;-73
2024/02/04 05:59:13;;;;;;;8.07;2.23;;;6.70;99.90;;;;;;4948703;28;20207;-73
2024/02/04 06:01:41;;;;;;;3.47;2.13;;;6.70;99.90;;;;;;4948918;28;20298;-72
2024/02/04 06:04:08;;;;;;;4.37;2.10;;;6.70;99.90;;;;;;4962951;28;20215;-73
2024/02/04 06:06:36;;;;;;;6.57;2.90;;;6.70;99.90;;;;;;4967627;28;20231;-73
2024/02/04 06:09:03;;;;;;;6.27;2.47;;;6.70;99.90;;;;;;4955391;28;20210;-73
2024/02/04 06:11:30;;;;;;;7.93;2.80;;;6.70;99.90;;;;;;4948605;28;20207;-73
2024/02/04 06:13:57;;;;;;;4.03;2.50;;;6.70;99.90;;;;;;4948483;28;20762;-73
2024/02/04 06:16:24;;;;;;;7.97;2.33;;;6.70;99.90;;;;;;4948522;28;20636;-74
2024/02/04 06:18:51;;;;;;;3.43;2.30;;;6.70;99.90;;;;;;4949128;28;20294;-73
2024/02/04 06:21:17;;;;;;;5.27;2.40;;;6.70;99.90;;;;;;4952276;28;20211;-74
2024/02/04 06:23:46;;;;;;;4.70;2.40;;;6.70;99.90;;;;;;4961630;28;20329;-74
2024/02/04 06:26:12;;;;;;;6.07;2.50;;;6.70;99.90;;;;;;4971577;28;20211;-74
2024/02/04 06:28:39;;;;;;;3.47;2.60;;;6.70;99.90;;;;;;4971268;28;20575;-74
2024/02/04 06:31:10;;;;;;;3.00;2.57;;;6.70;99.90;;;;;;4971716;28;20293;-74
2024/02/04 06:33:37;;;;;;;4.60;3.00;;;6.70;99.90;;;;;;4968989;28;20330;-73
2024/02/04 06:36:09;;;;;;;5.00;2.70;;;6.70;99.90;;;;;;4965214;28;20302;-74
2024/02/04 06:38:36;;;;;;;6.23;3.07;;;6.70;99.90;;;;;;4968955;28;20217;-74
2024/02/04 06:41:04;;;;;;;5.20;2.90;;;6.70;99.90;;;;;;4971513;28;20234;-74
2024/02/04 06:43:31;;;;;;;5.37;3.07;;;6.70;99.90;;;;;;4971409;28;20297;-74
2024/02/04 06:45:58;;;;;;;6.07;3.23;;;6.70;99.90;;;;;;4971292;28;20297;-74
2024/02/04 06:48:24;;;;;;;5.53;3.40;;;6.70;99.90;;;;;;4971332;28;20384;-74
2024/02/04 06:50:51;;;;;;;8.60;3.90;;;6.70;99.90;;;;;;4971139;28;20294;-73
2024/02/04 06:53:19;;;;;;;8.13;3.50;;;6.70;99.90;;;;;;4970939;28;20246;-74
2024/02/04 06:55:45;;;;;;;6.30;4.13;;;6.60;99.90;;;;;;4970950;28;20218;-74
2024/02/04 06:58:14;;;;;;;7.73;3.73;;;6.60;99.90;;;;;;4971219;28;20297;-74
2024/02/04 07:00:41;;;;;;;7.57;3.73;;;6.70;99.90;;;;;;4954452;28;20298;-76
2024/02/04 07:03:08;;;;;;;6.63;3.50;;;6.70;99.90;;;;;;4951399;28;20302;-72
2024/02/04 07:05:35;;;;;;;7.77;3.90;;;6.70;99.90;;;;;;4951427;28;20299;-73
2024/02/04 07:08:01;;;;;;;7.80;3.63;;;6.70;99.90;;;;;;4950748;28;20333;-73
2024/02/04 07:10:28;;;;;;;7.07;3.73;;;6.70;99.90;;;;;;4951707;28;20757;-73
2024/02/04 07:12:55;;;;;;;7.47;3.67;;;6.70;99.90;;;;;;4951323;28;20416;-74
2024/02/04 07:15:23;;;;;;;6.80;3.90;;;6.70;99.90;;;;;;4951203;28;20334;-73
2024/02/04 07:17:50;;;;;;;7.10;4.13;;;6.70;99.90;;;;;;4951392;28;20277;-75
2024/02/04 07:20:17;;;;;;;6.93;3.97;;;6.80;99.90;;;;;;4951505;28;20639;-74
2024/02/04 07:22:44;;;;;;;6.27;3.77;;;6.80;99.90;;;;;;4959104;28;20342;-74
2024/02/04 07:25:11;;;;;;;8.00;3.70;;;6.80;99.90;;;;;;4970446;28;20213;-75
2024/02/04 07:27:38;;;;;;;6.23;3.73;;;6.80;99.90;;;;;;4967932;28;20239;-74
2024/02/04 07:30:06;;;;;;;6.83;3.83;;;6.80;99.90;;;;;;4969733;28;20257;-74
2024/02/04 07:32:36;;;;;;;7.67;4.03;;;6.90;99.90;;;;;;4969998;28;20286;-75
2024/02/04 07:35:04;;;;;;;8.67;4.03;;;6.90;99.90;;;;;;4969681;28;20207;-75
2024/02/04 07:37:31;;;;;;;6.37;4.03;;;6.90;99.90;;;;;;4968287;28;20617;-75
2024/02/04 07:39:57;;;;;;;9.00;4.30;;;7.00;99.90;;;;;;4969181;28;20734;-75
2024/02/04 07:42:24;;;;;;;4.10;3.40;;;7.00;99.90;;;;;;4966100;28;20207;-74
2024/02/04 07:44:51;;;;;;;6.70;3.83;;;7.00;99.90;;;;;;4961683;28;20303;-74
2024/02/04 07:47:19;;;;;;;9.73;4.03;;;7.00;99.90;;;;;;4962648;28;20329;-74
2024/02/04 07:49:47;;;;;;;6.20;3.63;;;7.10;99.90;;;;;;4965267;28;20199;-74
2024/02/04 07:52:14;;;;;;;8.90;3.73;;;7.00;99.90;;;;;;4963342;28;20302;-74
2024/02/04 07:54:43;;;;;;;7.33;3.80;;;7.10;99.90;;;;;;4965051;28;20238;-74
2024/02/04 07:57:10;;;;;;;7.97;4.00;;;7.10;99.90;;;;;;4960689;28;20215;-75
2024/02/04 07:59:37;;;;;;;6.57;4.00;;;7.10;99.90;;;;;;4951970;28;20219;-75
2024/02/04 08:02:04;;;;;;;5.63;3.30;;;7.10;99.90;;;;;;4950503;29;20203;-74
2024/02/04 08:04:31;;;;;;;6.40;3.40;;;7.20;99.90;;;;;;4951246;28;20200;-74
2024/02/04 08:07:00;;;;;;;6.23;3.63;;;7.20;99.90;;;;;;4949119;28;20322;-74
2024/02/04 08:09:27;;;;;;;6.10;3.33;;;7.20;99.90;;;;;;4950515;28;20216;-74
2024/02/04 08:11:54;;;;;;;6.03;3.50;;;7.20;99.90;;;;;;4950434;28;20319;-74
2024/02/04 08:14:20;;;;;;;5.47;3.17;;;7.30;99.90;;;;;;4950306;28;20745;-75
2024/02/04 08:16:48;;;;;;;5.77;2.93;;;7.30;99.90;;;;;;4950668;28;20311;-74
2024/02/04 08:19:15;;;;;;;6.10;3.10;;;7.30;99.90;;;;;;4950658;28;20627;-74
2024/02/04 08:21:42;;;;;;;4.40;2.93;;;7.30;99.90;;;;;;4949659;28;20295;-74
2024/02/04 08:24:10;;;;;;;8.90;3.40;;;7.40;99.90;;;;;;4963340;28;20241;-75
2024/02/04 08:26:37;;;;;;;5.50;3.03;;;7.40;99.90;;;;;;4969093;28;20253;-75
2024/02/04 08:29:04;;;;;;;6.47;2.57;;;7.40;99.90;;;;;;4969185;28;20207;-74
2024/02/04 08:31:33;;;;;;;4.83;2.60;;;7.40;99.90;;;;;;4969463;28;20215;-75
2024/02/04 08:34:00;;;;;;;8.23;2.60;;;7.40;99.90;;;;;;4950058;28;20231;-75
2024/02/04 08:36:27;;;;;;;6.23;2.30;;;7.50;99.90;;;;;;4949907;28;20218;-75
2024/02/04 08:38:54;;;;;;;5.50;2.33;;;7.50;99.90;;;;;;4949990;28;20211;-74
2024/02/04 08:41:22;;;;;;;7.97;2.43;;;7.40;99.90;;;;;;4949918;28;20294;-74
2024/02/04 08:43:49;;;;;;;8.17;2.70;;;7.50;99.90;;;;;;4951806;28;20295;-74
2024/02/04 08:46:16;;;;;;;5.73;2.07;;;7.50;99.90;;;;;;4968651;28;20299;-75
2024/02/04 08:48:43;;;;;;;5.03;2.43;;;7.50;99.90;;;;;;4968643;28;20326;-74
2024/02/04 08:51:12;;;;;;;5.13;2.23;;;7.50;99.90;;;;;;4968970;28;20238;-74
2024/02/04 08:53:39;;;;;;;6.33;2.20;;;7.50;99.90;;;;;;4960918;28;20666;-74
2024/02/04 08:56:07;;;;;;;5.17;2.10;;;7.50;99.90;;;;;;4968858;28;20314;-75
2024/02/04 08:58:37;;;;;;;6.40;2.40;;;7.50;99.90;;;;;;4968709;28;20255;-75
2024/02/04 09:01:04;;;;;;;6.37;2.20;;;7.60;99.90;;;;;;4968951;28;20252;-74
2024/02/04 09:03:30;;;;;;;7.63;1.90;;;7.50;99.90;;;;;;4968747;28;20335;-74
2024/02/04 09:05:58;;;;;;;5.83;2.03;;;7.60;99.90;;;;;;4966381;28;20293;-74
2024/02/04 09:08:25;;;;;;;8.50;2.37;;;7.60;99.90;;;;;;4949041;28;20322;-74
2024/02/04 09:10:52;;;;;;;4.23;2.00;;;7.60;99.90;;;;;;4949246;28;20302;-74
2024/02/04 09:13:19;;;;;;;5.50;2.00;;;7.60;99.90;;;;;;4949418;28;20239;-75
2024/02/04 09:15:47;;;;;;;3.23;1.70;;;7.70;99.90;;;;;;4948996;28;20218;-74
2024/02/04 09:18:14;;;;;;;6.53;2.37;;;7.60;99.90;;;;;;4949218;28;20318;-74
2024/02/04 09:20:41;;;;;;;3.73;2.30;;;7.60;99.90;;;;;;4949384;29;20223;-74
2024/02/04 09:23:08;;;;;;;6.90;2.30;;;7.70;99.90;;;;;;4953692;28;20329;-74
2024/02/04 09:25:35;;;;;;;4.37;2.10;;;7.70;99.90;;;;;;4968281;28;20215;-74
2024/02/04 09:28:02;;;;;;;4.17;1.60;;;7.70;99.90;;;;;;4965267;28;20318;-74
2024/02/04 09:30:28;;;;;;;8.63;2.27;;;7.80;99.90;;;;;;4948971;28;20290;-75
2024/02/04 09:32:57;;;;;;;5.80;2.30;;;7.80;99.90;;;;;;4949112;28;20302;-74
2024/02/04 09:35:24;;;;;;;5.47;1.70;;;7.90;99.90;;;;;;4949255;28;20211;-74
2024/02/04 09:37:50;;;;;;;5.30;1.97;;;7.90;99.90;;;;;;4948551;28;20273;-74
2024/02/04 09:40:18;;;;;;;7.67;2.13;;;7.90;99.90;;;;;;4956437;28;20298;-74
2024/02/04 09:42:45;;;;;;;3.00;1.43;;;8.00;99.90;;;;;;4967969;28;20207;-74
2024/02/04 09:45:15;;;;;;;4.93;1.63;;;8.10;99.90;;;;;;4967867;28;20211;-74
2024/02/04 09:47:45;;;;;;;2.63;1.40;;;8.10;99.90;;;;;;4964837;28;20239;-75
2024/02/04 09:50:14;;;;;;;3.20;1.40;;;8.10;99.90;;;;;;4948888;29;20496;-74
2024/02/04 09:52:45;;;;;;;3.33;1.33;;;8.20;99.90;;;;;;4949813;28;20199;-74
2024/02/04 09:55:16;;;;;;;4.97;1.70;;;8.20;99.90;;;;;;4971407;28;20294;-75
2024/02/04 09:57:42;;;;;;;2.80;1.47;;;8.20;99.90;;;;;;4971925;28;20285;-75
2024/02/04 10:00:11;;;;;;;5.20;1.43;;;8.30;99.90;;;;;;4971771;28;20308;-75
2024/02/04 10:02:38;;;;;;;3.93;1.20;;;8.30;99.90;;;;;;4972187;28;20585;-74
2024/02/04 10:05:05;;;;;;;6.17;1.40;;;8.30;99.90;;;;;;4960116;28;20258;-74
2024/02/04 10:07:33;;;;;;;5.90;1.40;;;8.30;99.90;;;;;;4952462;28;20322;-75
2024/02/04 10:10:00;;;;;;;4.17;1.57;;;8.30;99.90;;;;;;4952258;28;20701;-74
2024/02/04 10:12:27;;;;;;;3.07;1.40;;;8.40;99.90;;;;;;4952683;28;20294;-75
2024/02/04 10:14:54;;;;;;;2.97;1.53;;;8.40;99.90;;;;;;4952259;28;20254;-75
2024/02/04 10:17:22;;;;;;;2.30;1.10;;;8.40;99.90;;;;;;4952809;28;20765;-74
2024/02/04 10:19:49;;;;;;;2.63;1.20;;;8.40;99.90;;;;;;4958978;28;20297;-74
2024/02/04 10:22:16;;;;;;;4.80;1.43;;;8.50;99.90;;;;;;4971200;28;20338;-75
2024/02/04 10:24:46;;;;;;;4.57;1.47;;;8.50;99.90;;;;;;4971632;28;20207;-75
2024/02/04 10:27:13;;;;;;;4.20;1.20;;;8.60;99.90;;;;;;4971102;28;20207;-75
2024/02/04 10:29:40;;;;;;;4.40;1.30;;;8.60;99.90;;;;;;4971691;28;20318;-74
2024/02/04 10:32:08;;;;;;;4.60;1.40;;;8.60;99.90;;;;;;4971562;28;20302;-74
2024/02/04 10:34:38;;;;;;;3.13;1.03;;;8.60;99.90;;;;;;4955021;28;20208;-74
2024/02/04 10:37:05;;;;;;;2.77;1.10;;;8.60;99.90;;;;;;4952742;28;20688;-74
2024/02/04 10:39:32;;;;;;;3.27;1.27;;;8.60;99.90;;;;;;4971582;28;20815;-75
2024/02/04 10:42:03;;;;;;;5.37;1.53;;;8.60;99.90;;;;;;4971246;28;20306;-75
2024/02/04 10:44:37;;;;;;;3.80;1.30;;;8.60;99.90;;;;;;4971191;28;20218;-74
2024/02/04 10:47:07;;;;;;;5.90;1.30;;;8.70;99.90;;;;;;4971318;28;20801;-75
2024/02/04 10:49:37;;;;;;;5.50;1.53;;;8.60;99.90;;;;;;4970941;28;20714;-74
2024/02/04 10:52:08;;;;;;;4.20;1.60;;;8.60;99.90;;;;;;4971173;28;20211;-75
2024/02/04 10:54:39;;;;;;;3.83;1.30;;;8.60;99.90;;;;;;4971431;28;20270;-75
2024/02/04 10:57:13;;;;;;;3.87;1.27;;;8.60;99.90;;;;;;4971125;28;20245;-74
2024/02/04 10:59:40;;;;;;;1.97;1.27;;;8.60;99.90;;;;;;4967555;28;20667;-74
2024/02/04 11:02:07;;;;;;;5.60;1.53;;;8.60;99.90;;;;;;4951964;28;20203;-75
2024/02/04 11:04:36;;;;;;;2.90;1.27;;;8.60;99.90;;;;;;4951732;28;20255;-75
2024/02/04 11:07:05;;;;;;;8.60;1.50;;;8.60;99.90;;;;;;4951534;28;20295;-74
2024/02/04 11:09:32;;;;;;;4.23;1.17;;;8.60;99.90;;;;;;4951940;28;20294;-75
2024/02/04 11:12:01;;;;;;;3.43;1.50;;;8.70;99.90;;;;;;4959714;28;20209;-75
2024/02/04 11:14:32;;;;;;;7.50;1.57;;;8.70;99.90;;;;;;4971074;28;20592;-74
2024/02/04 11:17:18;;;;;;;2.10;1.20;;;8.70;99.90;;;;;;4970741;28;20743;-74
2024/02/04 11:19:57;;;;;;;1.87;1.30;;;8.70;99.90;;;;;;4971156;28;20210;-74
2024/02/04 11:22:44;;;;;;;3.90;1.40;;;8.70;99.90;;;;;;4970197;28;20330;-74
2024/02/04 11:25:30;;;;;;;2.50;1.20;;;8.70;99.90;;;;;;4967346;28;20285;-74
2024/02/04 11:27:58;;;;;;;1.83;1.33;;;8.70;99.90;;;;;;4951360;28;20400;-74
2024/02/04 11:30:26;;;;;;;3.70;1.27;;;8.70;99.90;;;;;;4951260;28;20305;-75
2024/02/04 11:32:53;;;;;;;3.00;1.43;;;8.70;99.90;;;;;;4951281;28;20243;-74
2024/02/04 11:35:22;;;;;;;6.73;1.70;;;8.70;99.90;;;;;;4954969;28;20211;-74
2024/02/04 11:37:49;;;;;;;1.77;1.23;;;8.70;99.90;;;;;;4970153;28;20256;-74
2024/02/04 11:40:18;;;;;;;2.40;1.37;;;8.70;99.90;;;;;;4970618;28;20214;-75
2024/02/04 11:42:46;;;;;;;5.00;1.33;;;8.80;99.90;;;;;;4970286;28;20211;-74
2024/02/04 11:45:14;;;;;;;2.67;1.07;;;8.80;99.90;;;;;;4970285;28;20206;-73
2024/02/04 11:47:42;;;;;;;4.10;1.30;;;8.80;99.90;;;;;;4966248;28;20489;-74
2024/02/04 11:50:10;;;;;;;7.40;3.50;;;8.80;99.90;;;;;;4951217;28;20209;-74
2024/02/04 11:52:37;;;;;;;2.27;1.73;;;8.80;99.90;;;;;;4951563;28;20207;-74
2024/02/04 11:55:06;;;;;;;4.07;1.10;;;8.80;99.90;;;;;;4969835;28;20749;-74
2024/02/04 11:57:34;;;;;;;4.60;1.30;;;8.90;99.90;;;;;;4969749;28;20579;-74
2024/02/04 12:00:02;;;;;;;3.50;1.23;;;8.90;99.90;;;;;;4969447;28;20313;-74
2024/02/04 12:02:29;;;;;;;2.00;1.00;;;8.90;99.90;;;;;;4969795;28;20226;-74
2024/02/04 12:04:57;;;;;;;3.47;1.20;;;8.80;99.90;;;;;;4969871;28;20561;-74
2024/02/04 12:07:24;;;;;;;3.20;1.40;;;8.80;99.90;;;;;;4969244;28;20812;-74
2024/02/04 12:09:51;;;;;;;4.37;1.50;;;8.80;99.90;;;;;;4969744;28;20361;-74
2024/02/04 12:12:19;;;;;;;5.57;1.57;;;8.80;99.90;;;;;;4969259;28;20307;-74
2024/02/04 12:14:47;;;;;;;2.37;1.10;;;8.80;99.90;;;;;;4969286;28;20221;-74
2024/02/04 12:17:14;;;;;;;3.10;1.33;;;8.80;99.90;;;;;;4968509;28;20342;-74
2024/02/04 12:19:41;;;;;;;2.93;1.60;;;8.80;99.90;;;;;;4969535;28;20226;-74
2024/02/04 12:22:10;;;;;;;4.17;1.07;;;8.80;99.90;;;;;;4969134;28;20325;-74
2024/02/04 12:24:37;;;;;;;2.10;1.37;;;8.70;99.90;;;;;;4953585;28;20215;-75
2024/02/04 12:27:05;;;;;;;2.77;1.50;;;8.70;99.90;;;;;;4949693;28;20682;-74
2024/02/04 12:29:32;;;;;;;5.47;1.73;;;8.70;99.90;;;;;;4952630;28;20273;-74
2024/02/04 12:32:00;;;;;;;5.63;1.43;;;8.70;99.90;;;;;;4969214;28;20407;-73
2024/02/04 12:34:27;;;;;;;3.13;1.57;;;8.70;99.90;;;;;;4969525;28;20221;-73
2024/02/04 12:37:00;;;;;;;2.40;1.20;;;8.70;99.90;;;;;;4960179;28;20261;-73
2024/02/04 12:39:28;;;;;;;4.10;1.60;;;8.70;99.90;;;;;;4968997;28;20577;-73
2024/02/04 12:41:55;;;;;;;3.27;1.43;;;8.70;99.90;;;;;;4968559;28;20210;-73
2024/02/04 12:44:22;;;;;;;5.90;1.47;;;8.70;99.90;;;;;;4968599;28;20246;-73
2024/02/04 12:46:52;;;;;;;2.00;1.27;;;8.70;99.90;;;;;;4968824;28;20290;-74
2024/02/04 12:49:21;;;;;;;2.27;1.20;;;8.70;99.90;;;;;;4968463;28;20242;-73
2024/02/04 12:51:48;;;;;;;3.47;1.10;;;8.70;99.90;;;;;;4968663;28;20210;-74
2024/02/04 12:54:15;;;;;;;2.90;1.57;;;8.70;99.90;;;;;;4968916;28;20214;-73
2024/02/04 12:56:46;;;;;;;3.77;1.17;;;8.70;99.90;;;;;;4968463;28;20696;-73
2024/02/04 12:59:23;;;;;;;3.37;1.40;;;8.70;99.90;;;;;;4968071;28;20203;-74
2024/02/04 13:01:54;;;;;;;3.20;1.27;;;8.70;99.90;;;;;;4968552;28;20375;-74